Aérodrome :
LOGIN :

S'inscrire | Disclaimer

   EN    FR    IT 

 










Légende :    VFR   VFR Marginal   IFR   IFR Intensif   IFR Très Intensif
Visi : 
Plafond : 
>= 8 km
>= 3000ft
5 à 8 km
1000 à 3000 ft
1500m à 5 km
500 à 1000 ft
800 à 1500m
200 à 500 ft
< 800m
< 200 ft
Symboles :   Orages  Brouillard  Fortes neiges  Fortes précipitations  Vent > 20 kt
SIGMETs :   Divers  Orages  Givrage  Turbulence  Onde Orograph.  Cendres Volcan.






- Altitude de l'aérodrome : 32 ft
- Code IATA : LKZ


EGUL - RAF Lakenheath

DERNIER METAR :
  • 100922Z AUTO 18014G20KT 9999 SCT090 06/03 A2999 RMK AO2 DZB12E22 SLP160 $

METARs EXPIRÉS :
  • 100912Z AUTO 18013G20KT 9999 -DZ FEW095 06/03 A3000 RMK AO2 DZB12 SLP163 $
  • 100856Z AUTO 18014G19KT 9999 SCT032 06/02 A3000 RMK AO2 SLP163 T00580024 57037 $
  • 100756Z AUTO 18011KT 9999 FEW190 04/01 A3004 RMK AO2 SLP177 T00440014 $
  • 100656Z AUTO 17007KT 9999 CLR 03/00 A3007 RMK AO2 SLP187 T00310000 $

TAF TAF EGUL
Valide du 10 à 05h jusqu'au 11 à 11h UTC


100500Z 1005/1111 19012KT 9999 FEW020 QNH3014INS
BECMG 1006/1007 19010G25KT 9999 SCT030 BKN120 QNH3002INS
BECMG 1009/1010 19025G35KT 9999 BKN020 510003 QNH2982INS
BECMG 1013/1014 19030G40KT 6000 -SHRA BKN012 520003 QNH2954INS
TEMPO 1014/1016 BKN009
TEMPO 1016/1021 19035G45KT BKN009
BECMG 1020/1021 23010G20KT 8000 -RA BKN010 QNH2953INS
BECMG 1100/1101 27010G20KT 9999 NSW SCT020 QNH2965INS TX11/1020Z TN02/1005Z



MET'MAP, la Météo Aéronautique d'un coup d'oeil ! - Copyright ORBIFLY Décembre 2007 - Disclaimer

ORBIFLY MET'MAP TEAM :

Programmation & Développement : Alexandra Zaïnal
Sur une idée originale de : Baudouin d'Aumeries
Assistance à la programmation : Marc-Olivier Méhu
Soutien technique & logistique : Manuel Goepfert

Contact : metmap@orbifly.com




SOURCES & CREDITS :

   NOAA